createdAt,value
2022-08-24T00:00:37.495Z,22.70
2022-08-24T00:03:04.622Z,22.80
2022-08-24T00:05:31.700Z,22.60
2022-08-24T00:07:58.981Z,22.60
2022-08-24T00:10:26.697Z,22.50
2022-08-24T00:12:53.683Z,22.20
2022-08-24T00:15:21.230Z,22.40
2022-08-24T00:17:48.123Z,22.20
2022-08-24T00:20:15.055Z,22.10
2022-08-24T00:22:42.610Z,22.40
2022-08-24T00:25:12.379Z,22.50
2022-08-24T00:27:41.025Z,22.30
2022-08-24T00:30:11.737Z,22.30
2022-08-24T00:32:38.730Z,22.30
2022-08-24T00:35:07.404Z,22.10
2022-08-24T00:37:34.544Z,22.00
2022-08-24T00:40:02.106Z,21.80
2022-08-24T00:42:29.048Z,21.60
2022-08-24T00:44:56.015Z,21.70
2022-08-24T00:47:28.372Z,21.80
2022-08-24T00:50:07.267Z,21.60
2022-08-24T00:52:39.400Z,21.70
2022-08-24T00:55:13.720Z,21.50
2022-08-24T00:57:44.670Z,21.40
2022-08-24T01:00:16.783Z,21.40
2022-08-24T01:02:49.001Z,21.50
2022-08-24T01:05:19.444Z,21.50
2022-08-24T01:07:50.818Z,21.50
2022-08-24T01:10:25.140Z,21.50
2022-08-24T01:13:00.035Z,21.70
2022-08-24T01:15:33.798Z,21.90
2022-08-24T01:18:20.330Z,21.90
2022-08-24T01:20:52.667Z,21.80
2022-08-24T01:23:45.532Z,21.70
2022-08-24T01:26:18.572Z,21.70
2022-08-24T01:28:49.133Z,21.80
2022-08-24T01:31:21.327Z,21.70
2022-08-24T01:33:51.423Z,21.70
2022-08-24T01:36:30.362Z,21.40
2022-08-24T01:39:02.324Z,21.40
2022-08-24T01:41:29.452Z,21.40
2022-08-24T01:43:58.286Z,21.40
2022-08-24T01:46:25.624Z,21.50
2022-08-24T01:48:52.864Z,21.40
2022-08-24T01:51:21.311Z,21.40
2022-08-24T01:53:49.344Z,21.40
2022-08-24T01:56:16.762Z,21.30
2022-08-24T01:58:46.249Z,21.40
2022-08-24T02:01:15.215Z,21.40
2022-08-24T02:03:42.101Z,21.40
2022-08-24T02:06:09.263Z,21.40
2022-08-24T02:08:36.295Z,21.50
2022-08-24T02:11:06.823Z,21.60
2022-08-24T02:13:33.793Z,21.70
2022-08-24T02:16:01.044Z,21.80
2022-08-24T02:20:55.410Z,21.50
2022-08-24T02:23:22.526Z,21.40
2022-08-24T02:25:49.962Z,21.50
2022-08-24T02:28:17.345Z,21.50
2022-08-24T02:30:44.893Z,21.30
2022-08-24T02:35:41.416Z,21.00
2022-08-24T02:38:10.061Z,21.10
2022-08-24T02:40:38.069Z,21.00
2022-08-24T02:43:06.071Z,21.00
2022-08-24T02:45:37.528Z,21.00
2022-08-24T02:48:05.120Z,21.10
2022-08-24T02:50:32.104Z,21.20
2022-08-24T02:52:59.091Z,21.20
2022-08-24T02:55:26.092Z,21.10
2022-08-24T02:57:53.021Z,21.20
2022-08-24T03:00:22.091Z,21.30
2022-08-24T03:02:49.127Z,21.30
2022-08-24T03:05:17.309Z,21.40
2022-08-24T03:07:44.497Z,21.30
2022-08-24T03:10:11.785Z,21.30
2022-08-24T03:12:39.583Z,21.20
2022-08-24T03:15:09.907Z,21.20
2022-08-24T03:17:38.029Z,21.20
2022-08-24T03:20:11.160Z,21.20
2022-08-24T03:22:38.927Z,21.10
2022-08-24T03:25:06.750Z,21.20
2022-08-24T03:27:33.690Z,21.20
2022-08-24T03:30:01.383Z,21.20
2022-08-24T03:32:28.383Z,21.00
2022-08-24T03:37:22.893Z,20.90
2022-08-24T03:39:51.122Z,21.00
2022-08-24T03:42:19.008Z,21.10
2022-08-24T03:44:45.957Z,21.20
2022-08-24T03:47:13.428Z,21.40
2022-08-24T03:49:40.855Z,21.10
2022-08-24T03:52:07.797Z,21.00
2022-08-24T03:54:34.779Z,20.90
2022-08-24T03:57:01.845Z,20.90
2022-08-24T03:59:28.839Z,20.80
2022-08-24T04:01:57.448Z,20.70
2022-08-24T04:04:25.035Z,20.70
2022-08-24T04:06:52.172Z,20.70
2022-08-24T04:09:19.684Z,20.80
2022-08-24T04:11:46.730Z,21.00
2022-08-24T04:14:23.581Z,21.00
2022-08-24T04:16:57.478Z,21.20
2022-08-24T04:19:25.024Z,21.30
2022-08-24T04:21:52.001Z,21.20
2022-08-24T04:24:20.547Z,21.30
2022-08-24T04:29:17.093Z,22.00
2022-08-24T04:31:44.815Z,21.40
2022-08-24T04:34:13.965Z,21.40
2022-08-24T04:36:43.072Z,21.30
2022-08-24T04:39:10.083Z,21.50
2022-08-24T04:41:37.448Z,21.40
2022-08-24T04:44:05.865Z,21.50
2022-08-24T04:46:32.785Z,21.50
2022-08-24T04:48:59.680Z,21.50
2022-08-24T04:51:26.986Z,21.60
2022-08-24T04:53:57.910Z,21.60
2022-08-24T04:58:54.809Z,21.70
2022-08-24T05:01:24.616Z,21.90
2022-08-24T05:03:54.341Z,22.00
2022-08-24T05:06:23.967Z,21.90
2022-08-24T05:08:51.884Z,22.10
2022-08-24T05:11:20.301Z,22.20
2022-08-24T05:13:47.577Z,22.10
2022-08-24T05:16:17.888Z,22.30
2022-08-24T05:18:46.169Z,22.40
2022-08-24T05:21:15.902Z,22.60
2022-08-24T05:26:18.576Z,22.80
2022-08-24T05:28:46.610Z,22.90
2022-08-24T05:31:20.034Z,22.70
2022-08-24T05:33:48.630Z,22.70
2022-08-24T05:36:22.361Z,22.80
2022-08-24T05:38:50.623Z,22.80
2022-08-24T05:41:17.992Z,23.00
2022-08-24T05:43:45.091Z,23.10
2022-08-24T05:46:12.432Z,23.10
2022-08-24T05:48:39.621Z,23.10
2022-08-24T05:51:08.790Z,23.10
2022-08-24T05:53:36.606Z,23.10
2022-08-24T05:56:12.241Z,23.20
2022-08-24T05:58:39.959Z,23.30
2022-08-24T06:01:12.840Z,23.30
2022-08-24T06:03:39.775Z,23.40
2022-08-24T06:06:08.665Z,23.50
2022-08-24T06:08:41.205Z,23.60
2022-08-24T06:11:09.239Z,23.60
2022-08-24T06:13:36.558Z,23.60
2022-08-24T06:16:22.011Z,23.60
2022-08-24T06:18:50.844Z,23.70
2022-08-24T06:21:21.160Z,23.80
2022-08-24T06:23:49.300Z,23.80
2022-08-24T06:26:34.684Z,24.10
2022-08-24T06:29:02.457Z,24.20
2022-08-24T06:31:39.470Z,24.30
2022-08-24T06:34:07.889Z,24.80
2022-08-24T06:36:34.792Z,25.00
2022-08-24T06:39:01.690Z,24.90
2022-08-24T06:41:28.771Z,25.20
2022-08-24T06:43:55.825Z,25.50
2022-08-24T06:46:25.706Z,25.80
2022-08-24T06:51:22.706Z,25.10
2022-08-24T06:53:50.797Z,25.20
2022-08-24T06:56:18.594Z,25.40
2022-08-24T06:58:46.022Z,25.70
2022-08-24T07:01:16.939Z,26.30
2022-08-24T07:03:44.974Z,26.60
2022-08-24T07:06:13.632Z,27.00
2022-08-24T07:08:42.393Z,27.50
2022-08-24T07:11:11.483Z,28.00
2022-08-24T07:13:38.842Z,28.50
2022-08-24T07:16:06.030Z,27.90
2022-08-24T07:18:33.614Z,27.60
2022-08-24T07:21:02.586Z,27.70
2022-08-24T07:23:41.759Z,27.50
2022-08-24T07:26:20.983Z,27.50
2022-08-24T07:29:01.258Z,27.60
2022-08-24T07:31:31.980Z,28.00
2022-08-24T07:34:01.961Z,28.60
2022-08-24T07:36:29.205Z,28.70
2022-08-24T07:38:57.404Z,29.00
2022-08-24T07:44:13.633Z,29.20
2022-08-24T07:46:41.988Z,29.30
2022-08-24T07:49:12.686Z,28.80
2022-08-24T07:51:48.662Z,29.30
2022-08-24T07:54:15.948Z,29.90
2022-08-24T07:56:43.322Z,30.50
2022-08-24T07:59:13.266Z,30.20
2022-08-24T08:01:41.413Z,30.80
2022-08-24T08:04:09.661Z,31.00
2022-08-24T08:06:37.153Z,31.30
2022-08-24T08:09:05.534Z,31.40
2022-08-24T08:11:32.603Z,31.70
2022-08-24T08:13:59.760Z,32.00
2022-08-24T08:16:27.633Z,32.00
2022-08-24T08:19:11.168Z,31.60
2022-08-24T08:22:05.066Z,32.10
2022-08-24T08:24:32.656Z,31.70
2022-08-24T08:27:00.363Z,32.00
2022-08-24T08:29:27.863Z,32.30
2022-08-24T08:31:55.163Z,32.00
2022-08-24T08:34:22.172Z,31.50
2022-08-24T08:36:49.577Z,31.60
2022-08-24T08:39:18.435Z,32.40
2022-08-24T08:42:15.482Z,32.40
2022-08-24T08:44:52.374Z,31.90
2022-08-24T08:47:37.698Z,32.20
2022-08-24T08:50:23.895Z,32.00
2022-08-24T08:53:12.467Z,32.30
2022-08-24T08:55:45.171Z,33.00
2022-08-24T08:58:40.948Z,33.70
2022-08-24T09:01:47.028Z,34.00
2022-08-24T09:04:59.280Z,33.40
2022-08-24T09:07:50.759Z,33.30
2022-08-24T09:10:44.544Z,33.30
2022-08-24T09:14:06.860Z,33.30
2022-08-24T09:16:39.678Z,32.90
2022-08-24T09:19:31.731Z,32.80
2022-08-24T09:22:13.774Z,33.30
2022-08-24T09:24:43.233Z,33.60
2022-08-24T09:27:31.707Z,34.00
2022-08-24T09:30:08.571Z,34.50
2022-08-24T09:32:37.784Z,34.80
2022-08-24T09:35:26.368Z,34.70
2022-08-24T09:38:02.986Z,34.30
2022-08-24T09:40:54.270Z,34.60
2022-08-24T09:43:47.860Z,34.50
2022-08-24T09:46:20.246Z,35.50
2022-08-24T09:48:53.051Z,35.10
2022-08-24T09:51:44.464Z,36.00
2022-08-24T09:54:15.034Z,35.30
2022-08-24T09:56:44.974Z,36.00
2022-08-24T09:59:49.307Z,35.80
2022-08-24T10:02:25.072Z,36.10
2022-08-24T10:05:11.414Z,36.40
2022-08-24T10:07:58.505Z,36.10
2022-08-24T10:10:51.363Z,36.50
2022-08-24T10:13:24.461Z,36.90
2022-08-24T10:16:16.059Z,37.20
2022-08-24T10:19:08.775Z,37.10
2022-08-24T10:21:48.640Z,36.50
2022-08-24T10:24:29.640Z,37.20
2022-08-24T10:27:04.513Z,37.50
2022-08-24T10:30:07.945Z,37.50
2022-08-24T10:32:42.933Z,38.10
2022-08-24T10:35:33.864Z,38.10
2022-08-24T10:38:41.307Z,37.60
2022-08-24T10:41:45.446Z,37.60
2022-08-24T10:44:27.328Z,37.90
2022-08-24T10:46:59.712Z,37.70
2022-08-24T10:49:29.170Z,38.40
2022-08-24T10:52:38.080Z,37.10
2022-08-24T10:55:28.390Z,37.10
2022-08-24T10:58:02.901Z,36.90
2022-08-24T11:00:30.938Z,37.70
2022-08-24T11:03:08.529Z,37.00
2022-08-24T11:05:47.104Z,37.50
2022-08-24T11:08:33.516Z,37.80
2022-08-24T11:11:13.762Z,39.00
2022-08-24T11:14:23.886Z,38.50
2022-08-24T11:16:55.771Z,38.80
2022-08-24T11:19:27.541Z,38.70
2022-08-24T11:21:58.301Z,38.60
2022-08-24T11:24:48.300Z,38.10
2022-08-24T11:27:19.702Z,39.00
2022-08-24T11:29:52.617Z,39.40
2022-08-24T11:32:39.186Z,39.70
2022-08-24T11:35:27.227Z,39.10
2022-08-24T11:38:08.462Z,39.20
2022-08-24T11:40:39.865Z,39.20
2022-08-24T11:43:32.522Z,38.70
2022-08-24T11:46:26.805Z,39.60
2022-08-24T11:49:09.926Z,40.00
2022-08-24T11:51:52.174Z,40.80
2022-08-24T11:54:51.068Z,40.50
2022-08-24T11:57:53.913Z,40.50
2022-08-24T12:00:25.040Z,39.60
2022-08-24T12:03:29.184Z,38.70
2022-08-24T12:06:04.357Z,39.10
2022-08-24T12:08:46.497Z,39.40
2022-08-24T12:11:34.847Z,39.60
2022-08-24T12:14:02.828Z,39.40
2022-08-24T12:16:55.591Z,38.70
2022-08-24T12:19:29.793Z,38.90
2022-08-24T12:22:01.014Z,38.20
2022-08-24T12:24:44.478Z,38.40
2022-08-24T12:27:17.699Z,38.50
2022-08-24T12:30:05.702Z,38.20
2022-08-24T12:32:58.023Z,38.20
2022-08-24T12:35:36.916Z,38.00
2022-08-24T12:38:29.307Z,38.20
2022-08-24T12:40:57.638Z,38.00
2022-08-24T12:43:40.677Z,38.00
2022-08-24T12:46:08.308Z,37.80
2022-08-24T12:49:19.519Z,37.90
2022-08-24T12:51:49.306Z,37.60
2022-08-24T12:54:47.187Z,37.60
2022-08-24T12:57:29.882Z,37.10
2022-08-24T13:00:06.939Z,36.00
2022-08-24T13:02:47.898Z,36.40
2022-08-24T13:05:19.155Z,36.40
2022-08-24T13:07:49.606Z,36.80
2022-08-24T13:10:38.386Z,37.20
2022-08-24T13:13:05.211Z,37.20
2022-08-24T13:15:32.008Z,37.70
2022-08-24T13:18:11.028Z,37.60
2022-08-24T13:20:44.362Z,37.90
2022-08-24T13:23:11.343Z,36.80
2022-08-24T13:25:47.328Z,37.20
2022-08-24T13:28:23.423Z,37.90
2022-08-24T13:30:58.577Z,37.40
2022-08-24T13:33:51.261Z,36.60
2022-08-24T13:36:42.747Z,37.80
2022-08-24T13:39:24.534Z,37.50
2022-08-24T13:42:02.607Z,37.80
2022-08-24T13:44:48.163Z,38.30
2022-08-24T13:47:29.195Z,37.90
2022-08-24T13:50:04.397Z,37.30
2022-08-24T13:52:55.295Z,37.60
2022-08-24T13:55:50.686Z,37.40
2022-08-24T13:58:43.455Z,37.40
2022-08-24T14:01:50.422Z,37.40
2022-08-24T14:04:26.390Z,37.20
2022-08-24T14:07:08.359Z,37.20
2022-08-24T14:09:59.013Z,37.10
2022-08-24T14:12:34.719Z,36.20
2022-08-24T14:15:17.665Z,36.70
2022-08-24T14:18:12.632Z,36.10
2022-08-24T14:20:53.655Z,35.80
2022-08-24T14:23:59.871Z,36.30
2022-08-24T14:26:40.126Z,36.30
2022-08-24T14:29:34.437Z,35.90
2022-08-24T14:32:12.183Z,35.70
2022-08-24T14:34:42.425Z,35.80
2022-08-24T14:37:14.583Z,35.40
2022-08-24T14:39:53.643Z,35.40
2022-08-24T14:42:41.725Z,34.90
2022-08-24T14:45:34.951Z,34.60
2022-08-24T14:48:10.989Z,34.70
2022-08-24T14:50:48.929Z,34.40
2022-08-24T14:53:47.043Z,34.20
2022-08-24T14:57:16.196Z,34.00
2022-08-24T15:00:00.646Z,33.80
2022-08-24T15:02:30.303Z,33.50
2022-08-24T15:05:23.520Z,33.00
2022-08-24T15:08:01.814Z,32.80
2022-08-24T15:10:48.767Z,32.60
2022-08-24T15:13:35.939Z,32.30
2022-08-24T15:16:14.747Z,32.10
2022-08-24T15:18:59.863Z,32.00
2022-08-24T15:21:50.698Z,31.80
2022-08-24T15:24:29.506Z,31.70
2022-08-24T15:27:19.742Z,31.60
2022-08-24T15:29:58.786Z,31.50
2022-08-24T15:32:49.067Z,31.60
2022-08-24T15:35:30.442Z,31.40
2022-08-24T15:37:58.264Z,31.20
2022-08-24T15:40:31.544Z,31.10
2022-08-24T15:43:04.112Z,31.20
2022-08-24T15:45:31.545Z,31.20
2022-08-24T15:48:00.738Z,31.40
2022-08-24T15:50:35.071Z,31.20
2022-08-24T15:53:12.501Z,31.10
2022-08-24T15:55:43.377Z,31.10
2022-08-24T15:58:36.445Z,31.10
2022-08-24T16:01:30.681Z,31.10
2022-08-24T16:04:14.214Z,31.10
2022-08-24T16:06:45.672Z,31.00
2022-08-24T16:09:18.680Z,30.90
2022-08-24T16:12:04.169Z,30.90
2022-08-24T16:14:37.668Z,31.00
2022-08-24T16:17:27.764Z,30.90
2022-08-24T16:19:58.430Z,30.50
2022-08-24T16:22:39.045Z,30.50
2022-08-24T16:25:26.129Z,30.20
2022-08-24T16:27:56.299Z,30.20
2022-08-24T16:30:28.483Z,30.10
2022-08-24T16:32:57.857Z,30.10
2022-08-24T16:35:25.415Z,30.10
2022-08-24T16:37:52.928Z,29.90
2022-08-24T16:40:20.240Z,29.70
2022-08-24T16:42:47.766Z,29.70
2022-08-24T16:45:18.877Z,29.60
2022-08-24T16:47:47.172Z,29.60
2022-08-24T16:50:20.039Z,29.30
2022-08-24T16:52:48.586Z,29.50
2022-08-24T16:55:15.594Z,29.50
2022-08-24T16:57:43.139Z,29.40
2022-08-24T17:00:15.647Z,29.20
2022-08-24T17:02:43.317Z,29.10
2022-08-24T17:05:11.128Z,29.00
2022-08-24T17:07:38.380Z,28.70
2022-08-24T17:10:09.174Z,28.70
2022-08-24T17:12:37.140Z,28.70
2022-08-24T17:15:07.611Z,28.60
2022-08-24T17:17:35.010Z,28.70
2022-08-24T17:20:02.142Z,28.70
2022-08-24T17:22:29.698Z,28.70
2022-08-24T17:27:32.485Z,28.80
2022-08-24T17:30:00.562Z,29.00
2022-08-24T17:32:27.571Z,29.10
2022-08-24T17:34:55.018Z,29.20
2022-08-24T17:37:22.117Z,29.10
2022-08-24T17:39:58.332Z,29.00
2022-08-24T17:42:49.470Z,28.90
2022-08-24T17:45:15.075Z,28.90
2022-08-24T17:47:46.440Z,28.80
2022-08-24T17:50:15.201Z,28.80
2022-08-24T17:52:43.073Z,28.70
2022-08-24T17:55:12.606Z,28.70
2022-08-24T17:57:42.179Z,28.50
2022-08-24T18:00:13.825Z,28.40
2022-08-24T18:02:42.051Z,28.20
2022-08-24T18:05:11.340Z,28.10
2022-08-24T18:07:52.367Z,27.90
2022-08-24T18:10:23.833Z,27.90
2022-08-24T18:12:50.927Z,27.90
2022-08-24T18:15:17.910Z,27.80
2022-08-24T18:17:49.691Z,27.60
2022-08-24T18:20:27.722Z,27.50
2022-08-24T18:22:55.087Z,27.60
2022-08-24T18:25:25.410Z,27.40
2022-08-24T18:27:55.159Z,27.40
2022-08-24T18:30:28.859Z,27.30
2022-08-24T18:32:57.970Z,27.30
2022-08-24T18:35:25.075Z,27.20
2022-08-24T18:37:51.999Z,27.20
2022-08-24T18:40:20.481Z,27.10
2022-08-24T18:42:50.838Z,27.10
2022-08-24T18:45:18.475Z,27.10
2022-08-24T18:47:53.215Z,27.00
2022-08-24T18:50:21.261Z,26.90
2022-08-24T18:52:48.405Z,27.10
2022-08-24T18:55:16.586Z,27.00
2022-08-24T18:57:43.475Z,27.00
2022-08-24T19:00:11.257Z,27.00
2022-08-24T19:02:40.617Z,26.90
2022-08-24T19:05:10.279Z,26.90
2022-08-24T19:07:40.783Z,26.80
2022-08-24T19:10:13.744Z,26.80
2022-08-24T19:12:48.855Z,26.80
2022-08-24T19:15:32.282Z,26.70
2022-08-24T19:18:10.128Z,26.60
2022-08-24T19:20:43.500Z,26.80
2022-08-24T19:23:22.478Z,26.60
2022-08-24T19:25:50.986Z,26.60
2022-08-24T19:28:19.269Z,26.60
2022-08-24T19:30:47.307Z,26.50
2022-08-24T19:33:25.572Z,26.60
2022-08-24T19:35:53.274Z,26.60
2022-08-24T19:38:25.161Z,26.50
2022-08-24T19:40:53.302Z,26.50
2022-08-24T19:43:20.256Z,26.40
2022-08-24T19:46:03.336Z,26.30
2022-08-24T19:48:36.550Z,26.40
2022-08-24T19:51:06.311Z,26.30
2022-08-24T19:53:36.490Z,26.30
2022-08-24T19:56:05.478Z,26.30
2022-08-24T19:58:43.621Z,26.20
2022-08-24T20:01:18.946Z,26.20
2022-08-24T20:03:45.957Z,26.20
2022-08-24T20:06:14.183Z,26.30
2022-08-24T20:08:41.487Z,26.20
2022-08-24T20:11:09.263Z,26.10
2022-08-24T20:13:36.402Z,26.00
2022-08-24T20:16:10.712Z,26.00
2022-08-24T20:18:38.680Z,25.80
2022-08-24T20:21:06.769Z,26.00
2022-08-24T20:23:33.835Z,25.90
2022-08-24T20:26:03.485Z,25.90
2022-08-24T20:28:46.284Z,25.90
2022-08-24T20:33:41.023Z,25.80
2022-08-24T20:36:13.549Z,25.80
2022-08-24T20:38:43.847Z,25.70
2022-08-24T20:41:11.392Z,25.60
2022-08-24T20:43:38.745Z,25.60
2022-08-24T20:46:06.299Z,25.60
2022-08-24T20:48:34.123Z,25.50
2022-08-24T20:51:01.485Z,25.40
2022-08-24T20:53:28.524Z,25.50
2022-08-24T20:55:59.196Z,25.60
2022-08-24T20:58:26.198Z,25.70
2022-08-24T21:00:53.190Z,25.70
2022-08-24T21:03:20.334Z,25.70
2022-08-24T21:05:48.832Z,25.60
2022-08-24T21:08:15.794Z,25.60
2022-08-24T21:10:42.673Z,25.60
2022-08-24T21:13:09.766Z,25.40
2022-08-24T21:15:38.469Z,25.40
2022-08-24T21:18:05.997Z,25.10
2022-08-24T21:20:33.439Z,25.10
2022-08-24T21:23:00.303Z,25.00
2022-08-24T21:25:27.526Z,25.00
2022-08-24T21:27:54.854Z,25.00
2022-08-24T21:30:23.210Z,24.90
2022-08-24T21:33:08.797Z,25.00
2022-08-24T21:35:36.492Z,25.00
2022-08-24T21:38:05.012Z,25.20
2022-08-24T21:40:33.234Z,25.20
2022-08-24T21:43:00.361Z,25.10
2022-08-24T21:45:27.384Z,25.20
2022-08-24T21:47:54.507Z,25.10
2022-08-24T21:50:25.493Z,25.20
2022-08-24T21:52:53.964Z,25.10
2022-08-24T21:55:21.657Z,25.00
2022-08-24T21:57:49.252Z,25.00
2022-08-24T22:00:19.075Z,24.90
2022-08-24T22:02:48.199Z,25.00
2022-08-24T22:05:16.096Z,25.00
2022-08-24T22:07:43.633Z,25.00
2022-08-24T22:10:12.086Z,25.00
2022-08-24T22:12:41.303Z,25.00
2022-08-24T22:15:11.563Z,25.00
2022-08-24T22:17:38.790Z,25.00
2022-08-24T22:20:07.776Z,24.90
2022-08-24T22:22:36.183Z,24.90
2022-08-24T22:25:04.189Z,24.80
2022-08-24T22:27:31.905Z,24.60
2022-08-24T22:29:59.408Z,24.60
2022-08-24T22:32:27.003Z,24.50
2022-08-24T22:34:53.933Z,24.50
2022-08-24T22:37:20.814Z,24.30
2022-08-24T22:39:47.778Z,24.20
2022-08-24T22:42:14.811Z,24.20
2022-08-24T22:44:41.764Z,24.50
2022-08-24T22:47:13.140Z,24.20
2022-08-24T22:49:45.529Z,24.30
2022-08-24T22:52:14.253Z,24.20
2022-08-24T22:54:41.338Z,24.10
2022-08-24T22:57:09.186Z,23.90
2022-08-24T22:59:40.629Z,24.00
2022-08-24T23:02:12.957Z,24.00
2022-08-24T23:04:43.288Z,24.10
2022-08-24T23:07:11.055Z,24.20
2022-08-24T23:09:43.998Z,24.20
2022-08-24T23:12:17.938Z,24.20
2022-08-24T23:14:44.838Z,24.20
2022-08-24T23:17:12.168Z,24.20
2022-08-24T23:19:57.587Z,24.20
2022-08-24T23:22:25.602Z,24.00
2022-08-24T23:24:53.061Z,23.80
2022-08-24T23:27:20.199Z,23.90
2022-08-24T23:29:47.604Z,23.80
2022-08-24T23:32:17.694Z,23.80
2022-08-24T23:34:46.461Z,23.90
2022-08-24T23:37:15.569Z,23.90
2022-08-24T23:39:42.938Z,23.50
2022-08-24T23:42:10.039Z,23.50
2022-08-24T23:44:37.666Z,23.50
2022-08-24T23:47:05.014Z,23.50
2022-08-24T23:49:32.677Z,23.50
2022-08-24T23:51:59.899Z,23.30
2022-08-24T23:54:27.725Z,23.40
2022-08-24T23:56:55.309Z,23.20
2022-08-24T23:59:26.685Z,23.40
